Latest Weather Observations for Palmerville

IDQ60801

Issued at 8:32 pm EST Sunday 25 June 2017 (issued every 30 minutes, with the page automatically refreshed every 10 minutes)

About weather observations | Map of weather stations | Latest weather observations for QLD | Other Formats
Station Details ID: 028004 Name: PALMERVILLE Lat: -16.00 Lon: 144.08 Height: 203.8 m
Data from the previous 72 hours. | See also: Recent months at Palmerville
Date/Time
EST
Temp
°C
App
Temp
°C
Dew
Point
°C
Rel
Hum
%
Delta-T
°C
Wind Press
QNH
hPa
Press
MSL
hPa
Rain since
9am
mm
Dir  Spd
km/h
Gust
km/h
Spd
kts
Gust
kts
25/08:30pm 22.7 22.9 14.8 61 4.7 E 7 9 4 5 1014.9 1014.0 0.0
25/08:00pm 23.7 23.3 15.2 59 5.1 NE 11 17 6 9 1014.4 1013.5 0.0
25/07:30pm 23.6 23.7 15.6 61 4.9 ENE 9 15 5 8 1014.1 1013.2 0.0
25/07:00pm 23.5 24.1 15.3 60 5.0 ENE 6 7 3 4 1013.7 1012.8 0.0
25/06:30pm 25.2 25.8 14.3 50 6.5 N 4 6 2 3 1013.4 1012.4 0.0
25/06:00pm 26.5 26.5 14.3 47 7.3 NNE 7 9 4 5 1013.1 1012.1 0.0
25/05:30pm 28.0 27.8 14.6 44 8.1 NE 9 15 5 8 1012.9 1012.0 0.0
25/05:00pm 29.2 28.5 14.2 40 9.1 NNE 11 15 6 8 1012.6 1011.7 0.0
25/04:30pm 29.5 28.5 13.3 37 9.7 NNE 11 19 6 10 1012.3 1011.4 0.0
25/04:00pm 30.4 29.2 12.8 34 10.5 NNE 11 17 6 9 1012.2 1011.3 0.0
25/03:30pm 31.3 31.1 13.1 33 11.0 ESE 6 13 3 7 1012.3 1011.4 0.0
25/03:00pm 30.9 29.7 12.8 33 10.8 ENE 11 20 6 11 1012.4 1011.5 0.0
25/02:30pm 29.8 29.1 13.1 36 10.0 NNE 9 20 5 11 1012.5 1011.6 0.0
25/02:00pm 29.9 29.4 12.8 35 10.2 E 7 15 4 8 1013.1 1012.1 0.0
25/01:30pm 30.6 30.3 13.4 35 10.4 SE 7 13 4 7 1013.5 1012.5 0.0
25/01:00pm 29.2 28.3 12.6 36 9.8 SE 9 11 5 6 1014.0 1013.1 0.0
25/12:30pm 29.3 29.2 13.9 39 9.3 NE 7 13 4 7 1014.5 1013.6 0.0
25/12:00pm 28.1 28.3 14.7 44 8.2 SE 7 20 4 11 1014.9 1014.0 0.0
25/11:30am 27.6 27.5 14.9 45 7.7 ESE 9 20 5 11 1015.3 1014.4 0.0
25/11:00am 26.9 26.1 15.0 48 7.2 ENE 13 20 7 11 1015.9 1015.0 0.0
25/10:30am 26.1 26.1 15.2 51 6.6 ENE 9 17 5 9 1016.1 1015.2 0.0
25/10:00am 24.6 24.2 15.2 55 5.7 E 11 19 6 10 1016.2 1015.3 0.0
25/09:30am 23.6 23.7 15.6 61 4.9 ENE 9 17 5 9 1016.2 1015.3 0.0
25/09:00am 21.2 21.3 15.5 70 3.4 E 9 13 5 7 1016.2 1015.3 0.0
25/08:30am 19.4 19.4 15.3 77 2.4 ENE 9 13 5 7 1016.1 1015.2 0.0
25/08:00am 17.3 17.7 15.3 88 1.2 ENE 7 11 4 6 1015.8 1014.9 0.0
25/07:30am 15.4 15.7 14.9 97 0.3 E 7 9 4 5 1015.6 1014.7 0.0
25/07:00am 14.6 14.7 14.0 96 0.3 ENE 6 7 3 4 1015.3 1014.4 0.0
25/06:30am 15.1 15.4 14.5 96 0.3 E 6 9 3 5 1015.1 1014.2 0.0
25/06:00am 14.9 15.2 14.6 98 0.2 ENE 6 9 3 5 1015.1 1014.2 0.0
25/05:30am 14.3 15.0 13.5 95 0.4 ENE 2 6 1 3 1014.9 1014.0 0.0
25/05:00am 14.8 15.6 13.7 93 0.6 NE 2 6 1 3 1014.8 1013.9 0.0
25/04:30am 15.3 15.3 14.3 94 0.6 E 7 9 4 5 1014.7 1013.8 0.0
25/04:00am 15.0 15.5 14.0 94 0.6 ENE 4 9 2 5 1014.7 1013.8 0.0
25/03:30am 14.9 15.3 13.8 93 0.6 E 4 7 2 4 1014.8 1013.9 0.0
25/03:00am 15.3 16.4 13.5 89 1.0 CALM 0 0 0 0 1015.0 1014.1 0.0
25/02:30am 15.6 16.6 13.3 86 1.3 CALM 0 0 0 0 1014.9 1014.0 0.0
25/02:00am 16.3 16.9 13.0 81 1.9 E 2 6 1 3 1015.1 1014.2 0.0
25/01:30am 17.9 18.2 14.4 80 2.0 ENE 6 9 3 5 1015.3 1014.4 0.0
25/01:00am 18.2 18.4 14.3 78 2.3 ENE 6 7 3 4 1015.5 1014.6 0.0
25/12:30am 18.5 19.8 14.2 76 2.5 CALM 0 2 0 1 1015.6 1014.7 0.0
25/12:00am 19.1 19.8 14.6 75 2.6 ESE 4 9 2 5 1015.6 1014.7 0.0
 
Date/Time
EST
Temp
°C
App
Temp
°C
Dew
Point
°C
Rel
Hum
%
Delta-T
°C
Wind Press
QNH
hPa
Press
MSL
hPa
Rain since
9am
mm
Dir  Spd
km/h
Gust
km/h
Spd
kts
Gust
kts
24/11:30pm 19.6 19.8 14.2 71 3.1 E 6 7 3 4 1015.5 1014.6 0.0
24/11:00pm 20.3 21.0 14.4 69 3.5 ESE 4 7 2 4 1015.5 1014.6 0.0
24/10:30pm 21.1 21.2 14.5 66 3.9 E 7 13 4 7 1015.3 1014.4 0.0
24/10:00pm 21.5 21.3 14.6 65 4.1 E 9 17 5 9 1015.3 1014.4 0.0
24/09:30pm 21.8 21.7 14.9 65 4.1 ENE 9 19 5 10 1015.1 1014.2 0.0
24/09:00pm 22.5 21.6 14.9 62 4.5 ENE 13 20 7 11 1014.9 1014.0 0.0
24/08:30pm 23.2 22.4 15.0 60 4.9 E 13 26 7 14 1014.8 1013.9 0.0
24/08:00pm 23.8 23.4 15.3 59 5.1 ENE 11 20 6 11 1014.5 1013.6 0.0
24/07:30pm 24.5 24.3 15.7 58 5.4 NE 11 20 6 11 1013.9 1013.0 0.0
24/07:00pm 24.9 25.2 15.0 54 6.0 NE 7 13 4 7 1013.6 1012.7 0.0
24/06:30pm 25.9 25.2 14.4 49 6.9 NE 11 19 6 10 1013.3 1012.3 0.0
24/06:00pm 26.5 26.4 13.9 45 7.5 ENE 7 15 4 8 1012.9 1012.0 0.0
24/05:30pm 27.2 26.2 13.5 42 8.2 ENE 11 17 6 9 1012.7 1011.8 0.0
24/05:00pm 27.5 27.9 13.8 43 8.2 NE 4 9 2 5 1012.3 1011.4 0.0
24/04:30pm 27.6 27.1 12.8 40 8.7 ENE 7 13 4 7 1012.2 1011.3 0.0
24/04:00pm 28.3 26.8 13.0 39 9.1 E 13 20 7 11 1012.1 1011.2 0.0
24/03:30pm 28.0 27.7 12.8 39 9.0 ENE 6 11 3 6 1012.2 1011.3 0.0
24/03:00pm 29.8 28.6 12.7 35 10.2 NE 11 17 6 9 1012.3 1011.4 0.0
24/02:30pm 29.8 29.2 13.5 36 9.8 ENE 9 15 5 8 1012.6 1011.7 0.0
24/02:00pm 29.9 28.9 12.3 33 10.4 NE 9 17 5 9 1012.8 1011.9 0.0
24/01:30pm 28.0 26.4 11.5 35 9.6 ENE 11 17 6 9 1013.2 1012.2 0.0
24/01:00pm 27.9 27.2 13.1 40 8.8 E 9 17 5 9 1013.7 1012.8 0.0
24/12:30pm 27.9 26.1 13.4 40 8.7 SE 15 22 8 12 1014.3 1013.4 0.0
24/12:00pm 28.5 27.3 14.0 41 8.8 ENE 13 24 7 13 1014.6 1013.7 0.0
24/11:30am 27.7 27.1 14.7 45 7.9 ESE 11 17 6 9 1015.2 1014.3 0.0
24/11:00am 25.9 25.7 14.7 50 6.8 ESE 9 17 5 9 1015.5 1014.6 0.0
24/10:30am 25.6 25.0 14.7 51 6.6 E 11 17 6 9 1015.7 1014.8 0.0
24/10:00am 24.2 24.0 14.6 55 5.7 ENE 9 15 5 8 1015.8 1014.9 0.0
24/09:30am 23.3 23.5 14.8 59 5.1 E 7 11 4 6 1016.0 1015.1 0.0
24/09:00am 21.5 22.2 14.4 64 4.2 E 4 9 2 5 1015.9 1015.0 0.0
24/08:30am 20.0 20.5 13.9 68 3.5 ESE 4 7 2 4 1015.5 1014.6 0.0
24/08:00am 17.8 18.3 14.1 79 2.1 E 4 7 2 4 1015.4 1014.5 0.0
24/07:30am 14.6 15.2 13.0 90 0.9 E 2 6 1 3 1015.3 1014.4 0.0
24/07:00am 14.4 15.0 13.0 91 0.8 E 2 7 1 4 1015.1 1014.2 0.0
24/06:30am 14.2 15.0 12.6 90 0.9 CALM 0 0 0 0 1014.8 1013.9 0.0
24/06:00am 14.2 14.0 12.9 92 0.7 ENE 6 7 3 4 1014.8 1013.9 0.0
24/05:30am 14.1 14.7 12.0 87 1.1 CALM 0 0 0 0 1014.6 1013.7 0.0
24/05:00am 14.3 14.6 12.2 87 1.1 SE 2 7 1 4 1014.5 1013.6 0.0
24/04:30am 14.5 15.1 12.0 85 1.4 CALM 0 0 0 0 1014.4 1013.5 0.0
24/04:00am 15.3 15.9 11.9 80 1.9 CALM 0 4 0 2 1014.6 1013.7 0.0
24/03:30am 16.9 16.6 12.8 77 2.3 ENE 6 9 3 5 1014.7 1013.8 0.0
24/03:00am 17.2 16.5 13.1 77 2.3 E 9 13 5 7 1014.5 1013.6 0.0
24/02:30am 17.4 17.0 13.1 76 2.4 E 7 11 4 6 1014.7 1013.8 0.0
24/02:00am 17.6 16.9 13.1 75 2.5 E 9 13 5 7 1014.8 1013.9 0.0
24/01:30am 18.1 17.8 13.2 73 2.8 E 7 11 4 6 1015.1 1014.2 0.0
24/01:00am 18.2 18.0 13.5 74 2.7 ENE 7 9 4 5 1015.4 1014.5 0.0
24/12:30am 18.4 18.2 13.5 73 2.8 ENE 7 11 4 6 1015.5 1014.6 0.0
24/12:00am 18.8 18.5 13.4 71 3.1 ENE 7 11 4 6 1015.6 1014.7 0.0
 
Date/Time
EST
Temp
°C
App
Temp
°C
Dew
Point
°C
Rel
Hum
%
Delta-T
°C
Wind Press
QNH
hPa
Press
MSL
hPa
Rain since
9am
mm
Dir  Spd
km/h
Gust
km/h
Spd
kts
Gust
kts
23/11:30pm 19.6 19.1 13.8 69 3.4 E 9 15 5 8 1015.8 1014.9 0.0
23/11:00pm 19.6 19.5 13.3 67 3.6 ENE 6 9 3 5 1016.1 1015.2 0.0
23/10:30pm 20.2 20.0 12.9 63 4.2 E 6 11 3 6 1016.2 1015.3 0.0
23/10:00pm 20.9 20.4 12.6 59 4.7 E 7 13 4 7 1016.1 1015.2 0.0
23/09:30pm 21.7 20.9 12.8 57 5.1 E 9 17 5 9 1016.0 1015.1 0.0
23/09:00pm 22.4 21.8 12.4 53 5.7 ENE 7 13 4 7 1015.8 1014.9 0.0
23/08:30pm 23.6 22.7 12.6 50 6.4 E 9 20 5 11 1015.7 1014.8 0.0
23/08:00pm 24.6 23.5 11.9 45 7.3 E 9 17 5 9 1015.6 1014.7 0.0
23/07:30pm 25.3 23.3 11.5 42 7.9 ENE 13 19 7 10 1015.4 1014.5 0.0
23/07:00pm 25.6 24.6 12.4 43 7.7 NE 9 13 5 7 1014.8 1013.9 0.0
23/06:30pm 25.9 25.3 13.4 46 7.4 NE 9 15 5 8 1014.4 1013.5 0.0
23/06:00pm 26.7 26.1 13.4 43 7.9 NE 9 15 5 8 1014.0 1013.1 0.0
23/05:30pm 27.6 26.4 12.8 40 8.7 NE 11 19 6 10 1013.7 1012.8 0.0
23/05:00pm 28.9 28.2 11.9 35 9.9 NNW 7 11 4 6 1013.3 1012.3 0.0
23/04:30pm 29.8 29.7 10.9 31 10.9 SSE 2 7 1 4 1013.1 1012.1 0.0
23/04:00pm 30.2 29.7 10.7 30 11.3 ENE 4 9 2 5 1013.2 1012.2 0.0
23/03:30pm 30.3 29.6 11.3 31 11.1 N 6 11 3 6 1013.2 1012.2 0.0
23/03:00pm 30.3 29.0 11.3 31 11.1 ENE 9 15 5 8 1013.5 1012.5 0.0
23/02:30pm 30.2 29.4 11.7 32 10.8 E 7 13 4 7 1013.8 1012.9 0.0
23/02:00pm 29.2 28.2 12.2 35 10.0 ENE 9 15 5 8 1014.2 1013.3 0.0
23/01:30pm 28.8 27.8 12.2 35 9.8 ENE 9 19 5 10 1014.7 1013.8 0.0
23/01:00pm 29.4 28.3 13.2 37 9.7 SE 11 19 6 10 1015.2 1014.3 0.0
23/12:30pm 28.0 27.4 13.5 41 8.7 ESE 9 19 5 10 1015.7 1014.8 0.0
23/12:00pm 27.1 27.1 14.1 44 7.8 SSW 7 13 4 7 1016.3 1015.4 0.0
23/11:30am 26.6 25.8 14.0 46 7.5 ESE 11 19 6 10 1017.0 1016.1 0.0
23/11:00am 25.7 24.6 14.2 49 6.9 E 13 22 7 12 1017.3 1016.4 0.0
23/10:30am 25.4 24.4 14.5 51 6.6 SE 13 20 7 11 1017.5 1016.6 0.0
23/10:00am 23.9 24.2 14.6 56 5.6 ENE 6 11 3 6 1017.9 1017.1 0.0
23/09:30am 22.5 23.0 14.9 62 4.5 NE 6 9 3 5 1018.0 1017.2 0.0
23/09:00am 20.9 21.3 14.8 68 3.6 E 6 7 3 4 1018.2 1017.3 0.0
23/08:30am 18.7 18.8 14.4 76 2.5 E 7 11 4 6 1017.8 1017.0 0.0
23/08:00am 16.9 16.5 14.0 83 1.7 ESE 9 11 5 6 1017.5 1016.6 0.0
23/07:30am 14.9 14.8 13.4 91 0.8 ESE 6 9 3 5 1017.4 1016.5 0.0
23/07:00am 14.7 14.8 13.9 95 0.5 ESE 6 9 3 5 1017.1 1016.2 0.0
23/06:30am 14.1 13.9 13.5 96 0.3 ESE 7 9 4 5 1016.8 1015.9 0.0
23/06:00am 13.9 13.7 13.6 98 0.2 E 7 7 4 4 1016.7 1015.8 0.0
23/05:30am 12.9 13.6 12.1 95 0.4 CALM 0 0 0 0 1016.6 1015.7 0.0
23/05:00am 12.6 13.2 11.8 95 0.4 CALM 0 0 0 0 1016.6 1015.7 0.0
23/04:30am 12.5 12.9 11.4 93 0.6 CALM 0 6 0 3 1016.3 1015.4 0.0
23/04:00am 13.2 13.9 12.1 93 0.6 CALM 0 0 0 0 1016.2 1015.3 0.0
23/03:30am 13.4 14.1 12.1 92 0.7 CALM 0 6 0 3 1016.3 1015.4 0.0
23/03:00am 13.7 14.3 11.8 88 1.0 CALM 0 0 0 0 1016.4 1015.5 0.0
23/02:30am 14.2 13.7 12.2 88 1.1 ENE 6 7 3 4 1016.5 1015.6 0.0
23/02:00am 14.9 15.4 12.8 87 1.2 ENE 2 7 1 4 1016.6 1015.7 0.0
23/01:30am 15.3 14.8 12.1 81 1.8 E 6 7 3 4 1016.8 1015.9 0.0
23/01:00am 16.0 16.8 12.4 79 2.0 CALM 0 0 0 0 1017.1 1016.2 0.0
23/12:30am 17.2 17.7 12.9 76 2.4 NE 2 6 1 3 1017.2 1016.3 0.0
23/12:00am 18.2 18.3 13.9 76 2.5 W 6 7 3 4 1017.4 1016.5 0.0
 
Date/Time
EST
Temp
°C
App
Temp
°C
Dew
Point
°C
Rel
Hum
%
Delta-T
°C
Wind Press
QNH
hPa
Press
MSL
hPa
Rain since
9am
mm
Dir  Spd
km/h
Gust
km/h
Spd
kts
Gust
kts
22/11:30pm 18.8 18.7 13.4 71 3.1 ENE 6 9 3 5 1017.6 1016.7 0.0
22/11:00pm 19.1 19.1 13.5 70 3.2 ENE 6 11 3 6 1017.8 1017.0 0.0
22/10:30pm 19.6 19.4 13.5 68 3.5 ENE 7 11 4 6 1018.0 1017.2 0.0
22/10:00pm 20.1 20.0 13.8 67 3.7 E 7 11 4 6 1018.2 1017.3 0.0
22/09:30pm 20.7 20.2 13.9 65 4.0 E 9 15 5 8 1017.9 1017.1 0.0
22/09:00pm 21.1 20.5 13.5 62 4.4 E 9 13 5 7 1017.7 1016.8 0.0

Other Formats:

Comma delimited format used in spreadsheet applications
http://www.bom.gov.au/fwo/IDQ60801/IDQ60801.94276.axf

JavaScript Object Notation format (JSON) in row-major order
http://www.bom.gov.au/fwo/IDQ60801/IDQ60801.94276.json